sensor_id;sensor_type;location;lat;lon;timestamp;pressure;altitude;pressure_sealevel;temperature;humidity
73101;BME280;61288;53.446;-2.266;2023-05-07T00:00:56;101085.03;;;12.41;100.00
73101;BME280;61288;53.446;-2.266;2023-05-07T00:03:21;101077.19;;;12.43;100.00
73101;BME280;61288;53.446;-2.266;2023-05-07T00:05:47;101078.91;;;12.42;100.00
73101;BME280;61288;53.446;-2.266;2023-05-07T00:08:13;101078.09;;;12.42;100.00
73101;BME280;61288;53.446;-2.266;2023-05-07T00:10:38;101077.22;;;12.41;100.00
73101;BME280;61288;53.446;-2.266;2023-05-07T00:13:04;101077.22;;;12.41;100.00
73101;BME280;61288;53.446;-2.266;2023-05-07T00:15:29;101079.91;;;12.40;100.00
73101;BME280;61288;53.446;-2.266;2023-05-07T00:17:55;101080.75;;;12.40;100.00
73101;BME280;61288;53.446;-2.266;2023-05-07T00:20:21;101078.22;;;12.39;100.00
73101;BME280;61288;53.446;-2.266;2023-05-07T00:22:46;101076.53;;;12.38;100.00
73101;BME280;61288;53.446;-2.266;2023-05-07T00:25:11;101079.19;;;12.36;100.00
73101;BME280;61288;53.446;-2.266;2023-05-07T00:27:37;101080.09;;;12.35;100.00
73101;BME280;61288;53.446;-2.266;2023-05-07T00:30:02;101086.16;;;12.36;100.00
73101;BME280;61288;53.446;-2.266;2023-05-07T00:32:28;101086.16;;;12.36;100.00
73101;BME280;61288;53.446;-2.266;2023-05-07T00:34:56;101089.66;;;12.35;100.00
73101;BME280;61288;53.446;-2.266;2023-05-07T00:37:22;101085.28;;;12.35;100.00
73101;BME280;61288;53.446;-2.266;2023-05-07T00:39:47;101093.09;;;12.35;100.00
73101;BME280;61288;53.446;-2.266;2023-05-07T00:42:12;101086.19;;;12.34;100.00
73101;BME280;61288;53.446;-2.266;2023-05-07T00:44:38;101084.38;;;12.36;100.00
73101;BME280;61288;53.446;-2.266;2023-05-07T00:47:04;101093.94;;;12.36;100.00
73101;BME280;61288;53.446;-2.266;2023-05-07T00:49:41;101088.75;;;12.36;100.00
73101;BME280;61288;53.446;-2.266;2023-05-07T00:52:09;101092.19;;;12.36;100.00
73101;BME280;61288;53.446;-2.266;2023-05-07T00:54:36;101084.47;;;12.35;100.00
73101;BME280;61288;53.446;-2.266;2023-05-07T00:57:03;101081.88;;;12.35;100.00
73101;BME280;61288;53.446;-2.266;2023-05-07T00:59:30;101081.88;;;12.35;100.00
73101;BME280;61288;53.446;-2.266;2023-05-07T01:01:55;101089.66;;;12.35;100.00
73101;BME280;61288;53.446;-2.266;2023-05-07T01:04:21;101087.97;;;12.34;100.00
73101;BME280;61288;53.446;-2.266;2023-05-07T01:06:46;101089.66;;;12.35;100.00
73101;BME280;61288;53.446;-2.266;2023-05-07T01:09:12;101101.00;;;12.32;100.00
73101;BME280;61288;53.446;-2.266;2023-05-07T01:11:39;101091.53;;;12.31;100.00
73101;BME280;61288;53.446;-2.266;2023-05-07T01:14:05;101093.28;;;12.31;100.00
73101;BME280;61288;53.446;-2.266;2023-05-07T01:16:31;101092.44;;;12.30;100.00
73101;BME280;61288;53.446;-2.266;2023-05-07T01:18:56;101093.34;;;12.29;100.00
73101;BME280;61288;53.446;-2.266;2023-05-07T01:21:26;101093.28;;;12.31;100.00
73101;BME280;61288;53.446;-2.266;2023-05-07T01:23:52;101095.91;;;12.31;100.00
73101;BME280;61288;53.446;-2.266;2023-05-07T01:26:19;101095.94;;;12.29;100.00
73101;BME280;61288;53.446;-2.266;2023-05-07T01:28:45;101100.22;;;12.30;100.00
73101;BME280;61288;53.446;-2.266;2023-05-07T01:31:15;101103.69;;;12.31;100.00
73101;BME280;61288;53.446;-2.266;2023-05-07T01:33:43;101107.19;;;12.30;100.00
73101;BME280;61288;53.446;-2.266;2023-05-07T01:36:10;101111.53;;;12.29;100.00
73101;BME280;61288;53.446;-2.266;2023-05-07T01:38:37;101109.00;;;12.27;100.00
73101;BME280;61288;53.446;-2.266;2023-05-07T01:41:04;101112.44;;;12.28;100.00
73101;BME280;61288;53.446;-2.266;2023-05-07T01:43:30;101107.31;;;12.26;100.00
73101;BME280;61288;53.446;-2.266;2023-05-07T01:45:57;101113.34;;;12.27;100.00
73101;BME280;61288;53.446;-2.266;2023-05-07T01:48:24;101117.81;;;12.23;100.00
73101;BME280;61288;53.446;-2.266;2023-05-07T01:50:50;101110.09;;;12.22;100.00
73101;BME280;61288;53.446;-2.266;2023-05-07T01:53:16;101117.91;;;12.22;100.00
73101;BME280;61288;53.446;-2.266;2023-05-07T01:55:42;101117.94;;;12.20;100.00
73101;BME280;61288;53.446;-2.266;2023-05-07T01:58:07;101123.22;;;12.19;100.00
73101;BME280;61288;53.446;-2.266;2023-05-07T02:00:33;101125.75;;;12.20;100.00
73101;BME280;61288;53.446;-2.266;2023-05-07T02:02:58;101123.22;;;12.19;100.00
73101;BME280;61288;53.446;-2.266;2023-05-07T02:05:24;101127.50;;;12.20;100.00
73101;BME280;61288;53.446;-2.266;2023-05-07T02:07:49;101125.81;;;12.19;100.00
73101;BME280;61288;53.446;-2.266;2023-05-07T02:10:15;101133.66;;;12.17;100.00
73101;BME280;61288;53.446;-2.266;2023-05-07T02:12:41;101133.72;;;12.16;100.00
73101;BME280;61288;53.446;-2.266;2023-05-07T02:15:10;101134.66;;;12.15;100.00
73101;BME280;61288;53.446;-2.266;2023-05-07T02:17:39;101146.00;;;12.12;100.00
73101;BME280;61288;53.446;-2.266;2023-05-07T02:20:05;101136.50;;;12.11;100.00
73101;BME280;61288;53.446;-2.266;2023-05-07T02:22:32;101144.31;;;12.11;100.00
73101;BME280;61288;53.446;-2.266;2023-05-07T02:24:57;101141.75;;;12.09;100.00
73101;BME280;61288;53.446;-2.266;2023-05-07T02:27:23;101146.13;;;12.09;100.00
73101;BME280;61288;53.446;-2.266;2023-05-07T02:29:48;101145.22;;;12.10;100.00
73101;BME280;61288;53.446;-2.266;2023-05-07T02:32:14;101151.25;;;12.10;100.00
73101;BME280;61288;53.446;-2.266;2023-05-07T02:34:39;101153.91;;;12.09;100.00
73101;BME280;61288;53.446;-2.266;2023-05-07T02:37:07;101158.25;;;12.08;100.00
73101;BME280;61288;53.446;-2.266;2023-05-07T02:39:32;101155.66;;;12.08;100.00
73101;BME280;61288;53.446;-2.266;2023-05-07T02:41:58;101156.50;;;12.09;100.00
73101;BME280;61288;53.446;-2.266;2023-05-07T02:44:23;101157.34;;;12.09;100.00
73101;BME280;61288;53.446;-2.266;2023-05-07T02:46:48;101163.44;;;12.08;100.00
73101;BME280;61288;53.446;-2.266;2023-05-07T02:49:14;101166.03;;;12.08;100.00
73101;BME280;61288;53.446;-2.266;2023-05-07T02:51:40;101163.44;;;12.08;100.00
73101;BME280;61288;53.446;-2.266;2023-05-07T02:54:06;101166.94;;;12.07;100.00
73101;BME280;61288;53.446;-2.266;2023-05-07T02:56:32;101162.59;;;12.08;100.00
73101;BME280;61288;53.446;-2.266;2023-05-07T02:59:01;101167.81;;;12.08;100.00
73101;BME280;61288;53.446;-2.266;2023-05-07T03:01:26;101165.22;;;12.08;100.00
73101;BME280;61288;53.446;-2.266;2023-05-07T03:03:52;101168.63;;;12.08;100.00
73101;BME280;61288;53.446;-2.266;2023-05-07T03:06:17;101175.59;;;12.08;100.00
73101;BME280;61288;53.446;-2.266;2023-05-07T03:08:43;101179.94;;;12.07;100.00
73101;BME280;61288;53.446;-2.266;2023-05-07T03:11:08;101178.25;;;12.06;100.00
73101;BME280;61288;53.446;-2.266;2023-05-07T03:13:33;101182.59;;;12.06;100.00
73101;BME280;61288;53.446;-2.266;2023-05-07T03:15:59;101191.31;;;12.05;100.00
73101;BME280;61288;53.446;-2.266;2023-05-07T03:18:24;101193.03;;;12.04;100.00
73101;BME280;61288;53.446;-2.266;2023-05-07T03:20:51;101192.25;;;12.02;100.00
73101;BME280;61288;53.446;-2.266;2023-05-07T03:23:17;101197.53;;;11.99;100.00
73101;BME280;61288;53.446;-2.266;2023-05-07T03:25:42;101197.53;;;12.01;100.00
73101;BME280;61288;53.446;-2.266;2023-05-07T03:28:07;101199.31;;;11.98;100.00
73101;BME280;61288;53.446;-2.266;2023-05-07T03:30:33;101196.81;;;11.95;100.00
73101;BME280;61288;53.446;-2.266;2023-05-07T03:32:58;101198.56;;;11.95;100.00
73101;BME280;61288;53.446;-2.266;2023-05-07T03:35:24;101201.25;;;11.93;100.00
73101;BME280;61288;53.446;-2.266;2023-05-07T03:37:49;101199.50;;;11.92;100.00
73101;BME280;61288;53.446;-2.266;2023-05-07T03:40:15;101215.16;;;11.91;100.00
73101;BME280;61288;53.446;-2.266;2023-05-07T03:42:44;101209.19;;;11.89;100.00
73101;BME280;61288;53.446;-2.266;2023-05-07T03:45:09;101215.28;;;11.88;100.00
73101;BME280;61288;53.446;-2.266;2023-05-07T03:47:35;101216.19;;;11.87;100.00
73101;BME280;61288;53.446;-2.266;2023-05-07T03:50:00;101211.91;;;11.85;100.00
73101;BME280;61288;53.446;-2.266;2023-05-07T03:52:26;101210.22;;;11.84;100.00
73101;BME280;61288;53.446;-2.266;2023-05-07T03:54:52;101204.16;;;11.84;100.00
73101;BME280;61288;53.446;-2.266;2023-05-07T03:57:18;101197.28;;;11.83;100.00
73101;BME280;61288;53.446;-2.266;2023-05-07T03:59:44;101202.53;;;11.81;100.00
73101;BME280;61288;53.446;-2.266;2023-05-07T04:02:09;101202.59;;;11.80;100.00
73101;BME280;61288;53.446;-2.266;2023-05-07T04:04:35;101208.75;;;11.77;100.00
73101;BME280;61288;53.446;-2.266;2023-05-07T04:07:04;101204.44;;;11.76;100.00
73101;BME280;61288;53.446;-2.266;2023-05-07T04:09:29;101201.13;;;11.73;100.00
73101;BME280;61288;53.446;-2.266;2023-05-07T04:11:55;101204.63;;;11.72;100.00
73101;BME280;61288;53.446;-2.266;2023-05-07T04:14:21;101205.53;;;11.70;100.00
73101;BME280;61288;53.446;-2.266;2023-05-07T04:16:46;101213.25;;;11.72;100.00
73101;BME280;61288;53.446;-2.266;2023-05-07T04:19:12;101202.94;;;11.70;100.00
73101;BME280;61288;53.446;-2.266;2023-05-07T04:21:37;101205.53;;;11.70;100.00
73101;BME280;61288;53.446;-2.266;2023-05-07T04:24:03;101205.59;;;11.69;100.00
73101;BME280;61288;53.446;-2.266;2023-05-07T04:26:28;101211.63;;;11.69;100.00
73101;BME280;61288;53.446;-2.266;2023-05-07T04:28:54;101200.38;;;11.69;100.00
73101;BME280;61288;53.446;-2.266;2023-05-07T04:31:29;101206.44;;;11.69;100.00
73101;BME280;61288;53.446;-2.266;2023-05-07T04:33:55;101195.19;;;11.69;100.00
73101;BME280;61288;53.446;-2.266;2023-05-07T04:36:23;101192.59;;;11.69;100.00
73101;BME280;61288;53.446;-2.266;2023-05-07T04:38:53;101185.66;;;11.69;100.00
73101;BME280;61288;53.446;-2.266;2023-05-07T04:41:19;101200.38;;;11.69;100.00
73101;BME280;61288;53.446;-2.266;2023-05-07T04:43:44;101196.84;;;11.72;100.00
73101;BME280;61288;53.446;-2.266;2023-05-07T04:46:10;101205.47;;;11.72;100.00
73101;BME280;61288;53.446;-2.266;2023-05-07T04:48:36;101203.78;;;11.71;100.00
73101;BME280;61288;53.446;-2.266;2023-05-07T04:51:01;101202.88;;;11.72;100.00
73101;BME280;61288;53.446;-2.266;2023-05-07T04:53:27;101202.03;;;11.72;100.00
73101;BME280;61288;53.446;-2.266;2023-05-07T04:55:57;101207.22;;;11.72;100.00
73101;BME280;61288;53.446;-2.266;2023-05-07T04:58:24;101209.75;;;11.73;100.00
73101;BME280;61288;53.446;-2.266;2023-05-07T05:00:50;101211.41;;;11.76;100.00
73101;BME280;61288;53.446;-2.266;2023-05-07T05:03:15;101210.66;;;11.72;100.00
73101;BME280;61288;53.446;-2.266;2023-05-07T05:05:41;101212.56;;;11.67;100.00
73101;BME280;61288;53.446;-2.266;2023-05-07T05:08:06;101218.88;;;11.61;100.00
73101;BME280;61288;53.446;-2.266;2023-05-07T05:10:32;101228.50;;;11.58;100.00
73101;BME280;61288;53.446;-2.266;2023-05-07T05:12:57;101233.81;;;11.54;100.00
73101;BME280;61288;53.446;-2.266;2023-05-07T05:15:23;101235.66;;;11.51;100.00
73101;BME280;61288;53.446;-2.266;2023-05-07T05:17:48;101240.13;;;11.47;100.00
73101;BME280;61288;53.446;-2.266;2023-05-07T05:20:14;101241.84;;;11.47;100.00
73101;BME280;61288;53.446;-2.266;2023-05-07T05:22:41;101250.66;;;11.43;100.00
73101;BME280;61288;53.446;-2.266;2023-05-07T05:25:07;101242.97;;;11.39;100.00
73101;BME280;61288;53.446;-2.266;2023-05-07T05:27:33;101259.44;;;11.38;100.00
73101;BME280;61288;53.446;-2.266;2023-05-07T05:29:58;101251.81;;;11.34;100.00
73101;BME280;61288;53.446;-2.266;2023-05-07T05:32:23;101258.09;;;11.28;100.00
73101;BME280;61288;53.446;-2.266;2023-05-07T05:34:49;101254.63;;;11.27;100.00
73101;BME280;61288;53.446;-2.266;2023-05-07T05:37:14;101261.59;;;11.27;100.00
73101;BME280;61288;53.446;-2.266;2023-05-07T05:39:40;101267.72;;;11.24;100.00
73101;BME280;61288;53.446;-2.266;2023-05-07T05:42:06;101276.25;;;11.28;100.00
73101;BME280;61288;53.446;-2.266;2023-05-07T05:44:32;101272.81;;;11.26;100.00
73101;BME280;61288;53.446;-2.266;2023-05-07T05:46:57;101280.69;;;11.24;100.00
73101;BME280;61288;53.446;-2.266;2023-05-07T05:49:24;101276.50;;;11.20;100.00
73101;BME280;61288;53.446;-2.266;2023-05-07T05:51:50;101283.38;;;11.21;100.00
73101;BME280;61288;53.446;-2.266;2023-05-07T05:54:15;101288.59;;;11.20;100.00
73101;BME280;61288;53.446;-2.266;2023-05-07T05:56:41;101285.19;;;11.19;100.00
73101;BME280;61288;53.446;-2.266;2023-05-07T05:59:07;101278.19;;;11.21;100.00
73101;BME280;61288;53.446;-2.266;2023-05-07T06:01:33;101293.69;;;11.23;100.00
73101;BME280;61288;53.446;-2.266;2023-05-07T06:03:58;101289.28;;;11.25;100.00
73101;BME280;61288;53.446;-2.266;2023-05-07T06:06:23;101287.53;;;11.27;100.00
73101;BME280;61288;53.446;-2.266;2023-05-07T06:08:49;101294.28;;;11.31;100.00
73101;BME280;61288;53.446;-2.266;2023-05-07T06:11:14;101296.78;;;11.34;100.00
73101;BME280;61288;53.446;-2.266;2023-05-07T06:13:40;101303.59;;;11.37;100.00
73101;BME280;61288;53.446;-2.266;2023-05-07T06:16:06;101300.06;;;11.39;100.00
73101;BME280;61288;53.446;-2.266;2023-05-07T06:18:32;101302.59;;;11.41;100.00
73101;BME280;61288;53.446;-2.266;2023-05-07T06:20:57;101304.22;;;11.45;100.00
73101;BME280;61288;53.446;-2.266;2023-05-07T06:23:23;101310.13;;;11.49;100.00
73101;BME280;61288;53.446;-2.266;2023-05-07T06:25:49;101312.50;;;11.55;100.00
73101;BME280;61288;53.446;-2.266;2023-05-07T06:28:15;101313.25;;;11.59;100.00
73101;BME280;61288;53.446;-2.266;2023-05-07T06:30:41;101320.94;;;11.62;100.00
73101;BME280;61288;53.446;-2.266;2023-05-07T06:33:06;101331.03;;;11.69;100.00
73101;BME280;61288;53.446;-2.266;2023-05-07T06:35:32;101330.81;;;11.76;100.00
73101;BME280;61288;53.446;-2.266;2023-05-07T06:37:58;101329.53;;;11.88;100.00
73101;BME280;61288;53.446;-2.266;2023-05-07T06:40:23;101334.28;;;12.00;100.00
73101;BME280;61288;53.446;-2.266;2023-05-07T06:42:49;101341.75;;;12.09;100.00
73101;BME280;61288;53.446;-2.266;2023-05-07T06:45:15;101331.84;;;12.21;100.00
73101;BME280;61288;53.446;-2.266;2023-05-07T06:47:40;101336.56;;;12.33;100.00
73101;BME280;61288;53.446;-2.266;2023-05-07T06:50:06;101334.50;;;12.41;100.00
73101;BME280;61288;53.446;-2.266;2023-05-07T06:52:32;101335.34;;;12.44;97.02
73101;BME280;61288;53.446;-2.266;2023-05-07T06:54:58;101339.25;;;12.54;97.79
73101;BME280;61288;53.446;-2.266;2023-05-07T06:57:24;101343.31;;;12.61;98.64
73101;BME280;61288;53.446;-2.266;2023-05-07T06:59:49;101354.44;;;12.65;98.28
73101;BME280;61288;53.446;-2.266;2023-05-07T07:02:15;101346.69;;;12.63;96.93
73101;BME280;61288;53.446;-2.266;2023-05-07T07:04:40;101353.31;;;12.72;96.29
73101;BME280;61288;53.446;-2.266;2023-05-07T07:07:07;101352.56;;;12.68;95.11
73101;BME280;61288;53.446;-2.266;2023-05-07T07:09:32;101354.44;;;12.65;94.63
73101;BME280;61288;53.446;-2.266;2023-05-07T07:11:58;101359.41;;;12.71;94.23
73101;BME280;61288;53.446;-2.266;2023-05-07T07:14:23;101352.94;;;12.81;94.87
73101;BME280;61288;53.446;-2.266;2023-05-07T07:16:49;101359.81;;;13.05;94.90
73101;BME280;61288;53.446;-2.266;2023-05-07T07:19:14;101354.56;;;13.06;92.97
73101;BME280;61288;53.446;-2.266;2023-05-07T07:21:41;101351.44;;;12.98;91.80
73101;BME280;61288;53.446;-2.266;2023-05-07T07:24:06;101367.75;;;13.02;91.81
73101;BME280;61288;53.446;-2.266;2023-05-07T07:26:32;101368.53;;;13.04;90.92
73101;BME280;61288;53.446;-2.266;2023-05-07T07:28:58;101371.25;;;13.00;91.76
73101;BME280;61288;53.446;-2.266;2023-05-07T07:31:23;101371.00;;;13.07;92.74
73101;BME280;61288;53.446;-2.266;2023-05-07T07:33:49;101378.59;;;13.13;93.46
73101;BME280;61288;53.446;-2.266;2023-05-07T07:36:15;101364.16;;;13.26;93.88
73101;BME280;61288;53.446;-2.266;2023-05-07T07:38:41;101369.22;;;13.29;91.51
73101;BME280;61288;53.446;-2.266;2023-05-07T07:41:08;101373.25;;;13.37;93.42
73101;BME280;61288;53.446;-2.266;2023-05-07T07:43:33;101360.19;;;13.38;92.27
73101;BME280;61288;53.446;-2.266;2023-05-07T07:46:01;101363.50;;;13.42;91.51
73101;BME280;61288;53.446;-2.266;2023-05-07T07:48:26;101363.03;;;13.54;91.69
73101;BME280;61288;53.446;-2.266;2023-05-07T07:50:52;101363.50;;;13.64;91.50
73101;BME280;61288;53.446;-2.266;2023-05-07T07:53:18;101358.84;;;13.71;92.29
73101;BME280;61288;53.446;-2.266;2023-05-07T07:55:43;101366.31;;;13.79;92.05
73101;BME280;61288;53.446;-2.266;2023-05-07T07:58:09;101365.88;;;13.90;90.36
73101;BME280;61288;53.446;-2.266;2023-05-07T08:00:35;101359.69;;;13.92;88.07
73101;BME280;61288;53.446;-2.266;2023-05-07T08:03:00;101371.56;;;13.98;88.03
73101;BME280;61288;53.446;-2.266;2023-05-07T08:05:29;101371.97;;;14.09;89.19
73101;BME280;61288;53.446;-2.266;2023-05-07T08:07:55;101378.78;;;14.12;89.49
73101;BME280;61288;53.446;-2.266;2023-05-07T08:10:21;101376.75;;;14.19;88.09
73101;BME280;61288;53.446;-2.266;2023-05-07T08:12:48;101387.81;;;14.24;88.62
73101;BME280;61288;53.446;-2.266;2023-05-07T08:15:15;101384.94;;;14.30;89.10
73101;BME280;61288;53.446;-2.266;2023-05-07T08:17:40;101388.03;;;14.38;87.54
73101;BME280;61288;53.446;-2.266;2023-05-07T08:20:07;101393.31;;;14.56;88.15
73101;BME280;61288;53.446;-2.266;2023-05-07T08:22:33;101394.44;;;14.69;87.15
73101;BME280;61288;53.446;-2.266;2023-05-07T08:25:00;101389.97;;;14.73;83.84
73101;BME280;61288;53.446;-2.266;2023-05-07T08:27:25;101393.28;;;14.77;87.00
73101;BME280;61288;53.446;-2.266;2023-05-07T08:29:51;101397.97;;;14.87;85.65
73101;BME280;61288;53.446;-2.266;2023-05-07T08:32:16;101392.13;;;14.82;83.13
73101;BME280;61288;53.446;-2.266;2023-05-07T08:34:42;101395.81;;;14.78;85.31
73101;BME280;61288;53.446;-2.266;2023-05-07T08:37:07;101400.72;;;14.65;83.37
73101;BME280;61288;53.446;-2.266;2023-05-07T08:39:33;101401.16;;;14.56;82.87
73101;BME280;61288;53.446;-2.266;2023-05-07T08:42:00;101405.59;;;14.54;84.54
73101;BME280;61288;53.446;-2.266;2023-05-07T08:44:29;101408.19;;;14.54;85.63
73101;BME280;61288;53.446;-2.266;2023-05-07T08:46:58;101417.00;;;14.51;85.08
73101;BME280;61288;53.446;-2.266;2023-05-07T08:49:26;101416.31;;;14.67;85.15
73101;BME280;61288;53.446;-2.266;2023-05-07T08:51:52;101419.56;;;14.91;84.73
73101;BME280;61288;53.446;-2.266;2023-05-07T08:54:20;101419.34;;;14.96;81.13
73101;BME280;61288;53.446;-2.266;2023-05-07T08:56:46;101417.22;;;15.04;81.55
73101;BME280;61288;53.446;-2.266;2023-05-07T08:59:11;101419.50;;;15.10;82.93
73101;BME280;61288;53.446;-2.266;2023-05-07T09:01:37;101421.91;;;15.15;83.73
73101;BME280;61288;53.446;-2.266;2023-05-07T09:04:04;101422.59;;;15.19;82.13
73101;BME280;61288;53.446;-2.266;2023-05-07T09:06:31;101420.06;;;15.17;82.38
73101;BME280;61288;53.446;-2.266;2023-05-07T09:08:57;101414.00;;;15.16;82.28
73101;BME280;61288;53.446;-2.266;2023-05-07T09:11:24;101419.22;;;15.16;82.81
73101;BME280;61288;53.446;-2.266;2023-05-07T09:13:56;101420.47;;;15.27;82.03
73101;BME280;61288;53.446;-2.266;2023-05-07T09:16:26;101413.78;;;15.39;79.57
73101;BME280;61288;53.446;-2.266;2023-05-07T09:18:52;101417.72;;;15.65;80.81
73101;BME280;61288;53.446;-2.266;2023-05-07T09:21:20;101422.53;;;16.08;81.16
73101;BME280;61288;53.446;-2.266;2023-05-07T09:23:51;101418.34;;;16.22;76.66
73101;BME280;61288;53.446;-2.266;2023-05-07T09:26:18;101414.22;;;16.34;77.20
73101;BME280;61288;53.446;-2.266;2023-05-07T09:28:46;101411.63;;;16.34;77.86
73101;BME280;61288;53.446;-2.266;2023-05-07T09:31:11;101423.22;;;16.12;77.46
73101;BME280;61288;53.446;-2.266;2023-05-07T09:33:39;101423.94;;;15.98;76.50
73101;BME280;61288;53.446;-2.266;2023-05-07T09:36:07;101425.47;;;15.84;78.65
73101;BME280;61288;53.446;-2.266;2023-05-07T09:38:35;101428.66;;;15.91;78.36
73101;BME280;61288;53.446;-2.266;2023-05-07T09:41:13;101429.75;;;16.03;78.70
73101;BME280;61288;53.446;-2.266;2023-05-07T09:43:40;101428.59;;;16.09;77.00
73101;BME280;61288;53.446;-2.266;2023-05-07T09:46:08;101436.88;;;16.17;78.57
73101;BME280;61288;53.446;-2.266;2023-05-07T09:48:38;101441.97;;;16.36;75.98
73101;BME280;61288;53.446;-2.266;2023-05-07T09:51:11;101450.63;;;16.86;76.00
73101;BME280;61288;53.446;-2.266;2023-05-07T09:53:40;101445.84;;;16.95;74.70
73101;BME280;61288;53.446;-2.266;2023-05-07T09:56:07;101450.66;;;17.02;71.74
73101;BME280;61288;53.446;-2.266;2023-05-07T09:58:36;101450.81;;;16.99;73.99
73101;BME280;61288;53.446;-2.266;2023-05-07T10:01:03;101452.06;;;16.92;72.56
73101;BME280;61288;53.446;-2.266;2023-05-07T10:03:31;101457.31;;;16.76;72.65
73101;BME280;61288;53.446;-2.266;2023-05-07T10:05:58;101458.56;;;16.53;72.38
73101;BME280;61288;53.446;-2.266;2023-05-07T10:08:25;101456.84;;;16.36;73.63
73101;BME280;61288;53.446;-2.266;2023-05-07T10:10:50;101454.34;;;16.16;72.94
73101;BME280;61288;53.446;-2.266;2023-05-07T10:13:18;101450.97;;;16.14;73.99
73101;BME280;61288;53.446;-2.266;2023-05-07T10:15:44;101449.56;;;16.25;75.55
73101;BME280;61288;53.446;-2.266;2023-05-07T10:18:12;101444.56;;;16.54;76.59
73101;BME280;61288;53.446;-2.266;2023-05-07T10:20:39;101447.59;;;16.62;75.52
73101;BME280;61288;53.446;-2.266;2023-05-07T10:23:07;101450.31;;;16.60;73.35
73101;BME280;61288;53.446;-2.266;2023-05-07T10:25:34;101448.69;;;16.58;71.97
73101;BME280;61288;53.446;-2.266;2023-05-07T10:28:06;101450.00;;;16.49;72.43
73101;BME280;61288;53.446;-2.266;2023-05-07T10:31:02;101457.03;;;16.49;72.51
73101;BME280;61288;53.446;-2.266;2023-05-07T10:33:32;101461.72;;;16.75;73.42
73101;BME280;61288;53.446;-2.266;2023-05-07T10:36:00;101462.53;;;16.92;72.26
73101;BME280;61288;53.446;-2.266;2023-05-07T10:38:28;101455.72;;;17.06;74.74
73101;BME280;61288;53.446;-2.266;2023-05-07T10:40:55;101454.63;;;17.10;74.05
73101;BME280;61288;53.446;-2.266;2023-05-07T10:43:21;101446.03;;;17.08;72.60
73101;BME280;61288;53.446;-2.266;2023-05-07T10:46:14;101448.88;;;17.03;72.49
73101;BME280;61288;53.446;-2.266;2023-05-07T10:51:36;101457.22;;;16.78;72.38
73101;BME280;61288;53.446;-2.266;2023-05-07T10:56:39;101455.09;;;16.68;73.42
73101;BME280;61288;53.446;-2.266;2023-05-07T11:01:54;101453.25;;;18.25;71.18
73101;BME280;61288;53.446;-2.266;2023-05-07T11:04:21;101462.97;;;19.08;69.92
73101;BME280;61288;53.446;-2.266;2023-05-07T11:15:10;101466.81;;;19.83;60.42
73101;BME280;61288;53.446;-2.266;2023-05-07T11:20:18;101467.22;;;20.55;57.74
73101;BME280;61288;53.446;-2.266;2023-05-07T11:22:44;101460.91;;;20.57;57.52
73101;BME280;61288;53.446;-2.266;2023-05-07T11:25:09;101465.78;;;20.88;60.71
73101;BME280;61288;53.446;-2.266;2023-05-07T11:27:36;101463.28;;;21.11;59.29
73101;BME280;61288;53.446;-2.266;2023-05-07T11:30:01;101468.09;;;21.53;57.00
73101;BME280;61288;53.446;-2.266;2023-05-07T11:32:29;101463.88;;;21.74;54.94
73101;BME280;61288;53.446;-2.266;2023-05-07T11:34:57;101457.44;;;22.01;54.61
73101;BME280;61288;53.446;-2.266;2023-05-07T11:37:25;101461.88;;;22.35;54.52
73101;BME280;61288;53.446;-2.266;2023-05-07T11:40:08;101451.53;;;22.66;51.76
73101;BME280;61288;53.446;-2.266;2023-05-07T11:42:42;101454.19;;;22.43;50.38
73101;BME280;61288;53.446;-2.266;2023-05-07T11:45:10;101460.03;;;21.67;52.19
73101;BME280;61288;53.446;-2.266;2023-05-07T11:47:36;101454.72;;;21.31;52.11
73101;BME280;61288;53.446;-2.266;2023-05-07T11:50:06;101459.13;;;20.95;54.77
73101;BME280;61288;53.446;-2.266;2023-05-07T11:52:34;101458.31;;;20.31;55.38
73101;BME280;61288;53.446;-2.266;2023-05-07T11:55:02;101460.75;;;20.09;55.71
73101;BME280;61288;53.446;-2.266;2023-05-07T11:57:30;101465.16;;;19.82;57.34
73101;BME280;61288;53.446;-2.266;2023-05-07T11:59:59;101466.25;;;19.52;60.14
73101;BME280;61288;53.446;-2.266;2023-05-07T12:02:27;101465.00;;;18.75;59.74
73101;BME280;61288;53.446;-2.266;2023-05-07T12:04:54;101465.06;;;19.03;61.40
73101;BME280;61288;53.446;-2.266;2023-05-07T12:07:20;101468.34;;;19.47;58.79
73101;BME280;61288;53.446;-2.266;2023-05-07T12:09:46;101473.47;;;19.08;58.62
73101;BME280;61288;53.446;-2.266;2023-05-07T12:12:13;101471.31;;;19.15;60.12
73101;BME280;61288;53.446;-2.266;2023-05-07T12:14:42;101472.44;;;18.96;60.79
73101;BME280;61288;53.446;-2.266;2023-05-07T12:17:09;101479.50;;;18.96;59.83
73101;BME280;61288;53.446;-2.266;2023-05-07T12:19:35;101469.22;;;19.20;60.51
73101;BME280;61288;53.446;-2.266;2023-05-07T12:22:02;101467.56;;;19.85;58.87
73101;BME280;61288;53.446;-2.266;2023-05-07T12:24:28;101464.41;;;20.45;56.63
73101;BME280;61288;53.446;-2.266;2023-05-07T12:26:54;101467.75;;;20.97;57.99
73101;BME280;61288;53.446;-2.266;2023-05-07T12:29:23;101467.19;;;21.29;56.08
73101;BME280;61288;53.446;-2.266;2023-05-07T12:31:50;101469.53;;;21.21;54.49
73101;BME280;61288;53.446;-2.266;2023-05-07T12:34:17;101463.38;;;21.09;53.58
73101;BME280;61288;53.446;-2.266;2023-05-07T12:36:43;101470.47;;;21.09;54.42
73101;BME280;61288;53.446;-2.266;2023-05-07T12:39:09;101460.13;;;20.68;53.00
73101;BME280;61288;53.446;-2.266;2023-05-07T12:41:56;101462.13;;;20.27;51.88
73101;BME280;61288;53.446;-2.266;2023-05-07T12:44:23;101467.13;;;19.78;54.29
73101;BME280;61288;53.446;-2.266;2023-05-07T12:46:50;101462.78;;;19.65;55.91
73101;BME280;61288;53.446;-2.266;2023-05-07T12:49:16;101462.38;;;19.58;56.98
73101;BME280;61288;53.446;-2.266;2023-05-07T12:51:43;101456.38;;;19.43;59.41